createdAt,value
2022-11-25T00:03:37.549Z,100815.38
2022-11-25T00:08:42.391Z,100807.44
2022-11-25T00:13:46.181Z,100765.19
2022-11-25T00:18:51.026Z,100791.72
2022-11-25T00:23:56.649Z,100779.47
2022-11-25T00:29:00.657Z,100768.69
2022-11-25T00:34:03.424Z,100778.44
2022-11-25T00:39:11.213Z,100773.44
2022-11-25T00:44:35.243Z,100771.34
2022-11-25T00:49:39.334Z,100757.97
2022-11-25T00:54:44.667Z,100764.44
2022-11-25T00:59:47.378Z,100757.47
2022-11-25T01:04:49.980Z,100762.66
2022-11-25T01:09:54.370Z,100762.75
2022-11-25T01:15:01.767Z,100759.09
2022-11-25T01:20:04.846Z,100763.00
2022-11-25T01:25:09.420Z,100758.59
2022-11-25T01:30:12.740Z,100760.97
2022-11-25T01:35:15.470Z,100767.75
2022-11-25T01:40:19.761Z,100764.09
2022-11-25T01:45:34.866Z,100752.06
2022-11-25T01:50:38.041Z,100755.78
2022-11-25T01:55:45.640Z,100752.47
2022-11-25T02:06:25.715Z,100757.94
2022-11-25T02:11:31.680Z,100757.19
2022-11-25T02:16:34.257Z,100735.47
2022-11-25T02:21:43.773Z,100745.00
2022-11-25T02:26:48.104Z,100756.22
2022-11-25T02:31:51.779Z,100768.38
2022-11-25T02:36:54.622Z,100762.94
2022-11-25T02:42:00.794Z,100774.38
2022-11-25T02:47:03.492Z,100777.19
2022-11-25T02:52:06.136Z,100771.53
2022-11-25T02:57:10.210Z,100741.03
2022-11-25T03:02:12.849Z,100776.94
2022-11-25T03:07:15.460Z,100781.34
2022-11-25T03:12:22.533Z,100776.94
2022-11-25T03:17:29.066Z,100783.69
2022-11-25T03:22:31.836Z,100776.50
2022-11-25T03:27:36.763Z,100785.19
2022-11-25T03:32:39.460Z,100784.16
2022-11-25T03:37:42.938Z,100805.31
2022-11-25T03:42:48.249Z,100820.00
2022-11-25T03:47:52.335Z,100810.50
2022-11-25T03:52:55.962Z,100829.19
2022-11-25T03:58:00.152Z,100826.00
2022-11-25T04:03:02.935Z,100844.31
2022-11-25T04:08:09.050Z,100869.72
2022-11-25T04:13:14.683Z,100868.66
2022-11-25T04:18:19.704Z,100853.56
2022-11-25T04:23:26.035Z,100855.41
2022-11-25T04:28:36.133Z,100859.00
2022-11-25T04:33:39.234Z,100858.97
2022-11-25T04:38:42.947Z,100854.28
2022-11-25T04:43:47.093Z,100849.00
2022-11-25T04:48:51.017Z,100848.91
2022-11-25T04:53:55.419Z,100843.50
2022-11-25T04:59:19.010Z,100852.09
2022-11-25T05:04:23.391Z,100877.69
2022-11-25T05:09:26.209Z,100856.44
2022-11-25T05:14:50.690Z,100840.03
2022-11-25T05:19:54.256Z,100852.03
2022-11-25T05:24:57.620Z,100837.50
2022-11-25T05:30:01.700Z,100872.78
2022-11-25T05:35:05.133Z,100894.84
2022-11-25T05:40:09.105Z,100902.22
2022-11-25T05:45:39.652Z,100905.16
2022-11-25T05:50:44.646Z,100896.56
2022-11-25T05:55:57.464Z,100900.22
2022-11-25T06:01:19.890Z,100907.88
2022-11-25T06:06:23.873Z,100915.53
2022-11-25T06:11:26.506Z,100913.44
2022-11-25T06:16:30.611Z,100917.22
2022-11-25T06:21:45.649Z,100899.47
2022-11-25T06:26:49.264Z,100932.53
2022-11-25T06:31:53.756Z,100942.81
2022-11-25T06:37:10.215Z,100950.25
2022-11-25T06:42:13.059Z,100939.09
2022-11-25T06:47:17.568Z,100962.75
2022-11-25T06:52:20.086Z,100968.25
2022-11-25T06:57:22.620Z,100978.72
2022-11-25T07:02:26.556Z,100980.88
2022-11-25T07:07:29.164Z,100982.00
2022-11-25T07:12:32.458Z,100979.47
2022-11-25T07:17:36.745Z,100994.81
2022-11-25T07:22:39.330Z,101009.72
2022-11-25T07:27:41.888Z,101015.16
2022-11-25T07:32:45.762Z,101012.88
2022-11-25T07:37:48.724Z,101039.03
2022-11-25T07:42:51.522Z,101040.56
2022-11-25T07:47:55.511Z,101044.81
2022-11-25T07:52:58.056Z,101058.03
2022-11-25T07:58:00.623Z,101072.00
2022-11-25T08:03:05.277Z,101068.59
2022-11-25T08:08:08.146Z,101077.44
2022-11-25T08:13:10.743Z,101082.13
2022-11-25T08:18:14.948Z,101055.47
2022-11-25T08:23:17.573Z,101093.81
2022-11-25T08:28:20.150Z,101096.38
2022-11-25T08:33:24.947Z,101090.84
2022-11-25T08:38:28.632Z,101100.97
2022-11-25T08:43:31.414Z,101110.91
2022-11-25T08:48:35.572Z,101120.66
2022-11-25T08:53:40.089Z,101117.84
2022-11-25T08:58:42.642Z,101124.94
2022-11-25T09:03:49.176Z,101130.88
2022-11-25T09:08:52.382Z,101112.09
2022-11-25T09:13:55.047Z,101137.44
2022-11-25T09:18:59.939Z,101141.97
2022-11-25T09:24:02.711Z,101149.63
2022-11-25T09:29:05.334Z,101165.50
2022-11-25T09:34:09.850Z,101176.66
2022-11-25T09:39:12.587Z,101188.59
2022-11-25T09:44:47.800Z,101188.72
2022-11-25T09:55:39.081Z,101208.78
2022-11-25T10:00:44.737Z,101204.88
2022-11-25T10:05:56.020Z,101211.50
2022-11-25T10:11:03.825Z,101216.50
2022-11-25T10:16:15.505Z,101217.94
2022-11-25T10:21:19.442Z,101218.03
2022-11-25T10:26:25.527Z,101224.47
2022-11-25T10:31:36.237Z,101231.28
2022-11-25T10:36:43.144Z,101230.00
2022-11-25T10:41:51.385Z,101240.41
2022-11-25T10:47:15.023Z,101252.66
2022-11-25T10:52:23.078Z,101239.03
2022-11-25T10:57:29.563Z,101254.66
2022-11-25T11:02:39.806Z,101249.94
2022-11-25T11:07:46.611Z,101253.16
2022-11-25T11:12:57.497Z,101166.91
2022-11-25T11:18:01.635Z,101270.00
2022-11-25T11:23:10.714Z,101273.22
2022-11-25T11:28:32.950Z,101280.22
2022-11-25T11:33:42.077Z,101284.69
2022-11-25T11:38:54.550Z,101291.53
2022-11-25T11:44:08.515Z,101295.06
2022-11-25T11:49:31.806Z,101307.03
2022-11-25T11:54:38.599Z,101311.31
2022-11-25T11:59:48.763Z,101310.16
2022-11-25T12:04:58.761Z,101307.09
2022-11-25T12:10:06.539Z,101320.59
2022-11-25T12:15:18.657Z,101330.16
2022-11-25T12:20:33.696Z,101337.72
2022-11-25T12:25:41.472Z,101351.47
2022-11-25T12:31:04.743Z,101337.63
2022-11-25T12:36:13.236Z,101327.75
2022-11-25T12:41:25.578Z,101349.75
2022-11-25T12:46:36.013Z,101361.50
2022-11-25T12:51:51.391Z,101355.81
2022-11-25T12:57:25.088Z,101373.06
2022-11-25T13:02:47.787Z,101376.47
2022-11-25T13:08:06.518Z,101350.91
2022-11-25T13:13:25.916Z,101384.41
2022-11-25T13:18:33.352Z,101407.72
2022-11-25T13:23:49.335Z,101408.88
2022-11-25T13:28:53.552Z,101417.28
2022-11-25T13:34:03.162Z,101429.69
2022-11-25T13:39:14.103Z,101426.88
2022-11-25T13:44:25.243Z,101435.84
2022-11-25T13:49:42.066Z,101446.09
2022-11-25T13:54:50.426Z,101450.75
2022-11-25T13:59:58.212Z,101466.19
2022-11-25T14:05:07.539Z,101475.38
2022-11-25T14:10:28.099Z,101480.88
2022-11-25T14:15:45.388Z,101474.69
2022-11-25T14:20:57.309Z,101471.84
2022-11-25T14:26:16.314Z,101485.00
2022-11-25T14:31:38.219Z,101488.34
2022-11-25T14:36:45.549Z,101498.09
2022-11-25T14:41:53.787Z,101497.13
2022-11-25T14:46:59.645Z,101495.75
2022-11-25T14:52:02.253Z,101482.09
2022-11-25T14:57:04.917Z,101509.59
2022-11-25T15:02:25.443Z,101519.16
2022-11-25T15:07:31.304Z,101523.69
2022-11-25T15:12:35.024Z,101530.41
2022-11-25T15:17:38.942Z,101539.47
2022-11-25T15:22:46.840Z,101550.25
2022-11-25T15:27:51.758Z,101566.44
2022-11-25T15:32:57.583Z,101566.69
2022-11-25T15:38:00.282Z,101562.59
2022-11-25T15:43:05.253Z,101580.56
2022-11-25T15:48:16.584Z,101591.00
2022-11-25T15:53:31.615Z,101606.88
2022-11-25T15:58:36.139Z,101617.66
2022-11-25T16:03:40.094Z,101581.31
2022-11-25T16:08:54.154Z,101624.28
2022-11-25T16:14:19.944Z,101620.88
2022-11-25T16:19:31.611Z,101640.03
2022-11-25T16:24:41.371Z,101653.28
2022-11-25T16:29:54.770Z,101651.03
2022-11-25T16:35:01.686Z,101668.28
2022-11-25T16:40:04.973Z,101678.44
2022-11-25T16:45:18.838Z,101692.09
2022-11-25T16:50:22.379Z,101669.16
2022-11-25T16:55:25.734Z,101698.47
2022-11-25T17:00:29.977Z,101707.72
2022-11-25T17:05:32.579Z,101719.47
2022-11-25T17:10:35.607Z,101731.31
2022-11-25T17:15:40.047Z,101749.84
2022-11-25T17:20:42.720Z,101756.31
2022-11-25T17:25:49.715Z,101743.84
2022-11-25T17:30:53.867Z,101772.97
2022-11-25T17:35:56.405Z,101784.25
2022-11-25T17:40:58.970Z,101788.94
2022-11-25T17:46:02.942Z,101806.06
2022-11-25T17:51:07.683Z,101814.41
2022-11-25T17:56:19.577Z,101826.94
2022-11-25T18:01:24.712Z,101831.38
2022-11-25T18:06:27.301Z,101845.78
2022-11-25T18:11:29.843Z,101844.88
2022-11-25T18:16:35.331Z,101851.38
2022-11-25T18:21:38.106Z,101865.13
2022-11-25T18:26:44.882Z,101872.59
2022-11-25T18:31:49.804Z,101881.22
2022-11-25T18:36:53.093Z,101880.63
2022-11-25T18:41:58.182Z,101889.56
2022-11-25T18:47:02.192Z,101884.66
2022-11-25T18:52:05.039Z,101901.53
2022-11-25T18:57:07.770Z,101916.56
2022-11-25T19:02:17.078Z,101920.13
2022-11-25T19:07:20.502Z,101908.81
2022-11-25T19:12:23.362Z,101932.72
2022-11-25T19:17:28.113Z,101943.13
2022-11-25T19:22:31.115Z,101953.19
2022-11-25T19:27:38.641Z,101960.78
2022-11-25T19:32:45.093Z,101948.47
2022-11-25T19:37:47.749Z,101970.09
2022-11-25T19:42:51.147Z,101974.81
2022-11-25T19:47:55.017Z,101987.31
2022-11-25T19:52:57.634Z,101998.13
2022-11-25T19:58:00.726Z,101998.13
2022-11-25T20:03:05.205Z,102004.19
2022-11-25T20:08:12.987Z,102013.59
2022-11-25T20:13:15.838Z,102033.00
2022-11-25T20:18:23.377Z,102035.72
2022-11-25T20:23:29.517Z,102018.16
2022-11-25T20:28:32.551Z,102056.63
2022-11-25T20:33:36.646Z,102068.88
2022-11-25T20:38:44.367Z,102064.59
2022-11-25T20:43:49.545Z,102082.50
2022-11-25T20:48:56.224Z,102081.09
2022-11-25T20:54:01.553Z,102081.47
2022-11-25T20:59:11.565Z,102087.06
2022-11-25T21:04:15.721Z,102096.56
2022-11-25T21:09:21.788Z,102103.28
2022-11-25T21:14:24.672Z,102104.34
2022-11-25T21:19:28.544Z,102116.84
2022-11-25T21:24:33.569Z,102082.25
2022-11-25T21:29:36.577Z,102113.41
2022-11-25T21:34:40.785Z,102129.41
2022-11-25T21:39:43.692Z,102115.91
2022-11-25T21:44:47.251Z,102114.22
2022-11-25T21:49:51.733Z,102148.75
2022-11-25T21:54:54.383Z,102161.44
2022-11-25T21:59:56.991Z,102164.03
2022-11-25T22:05:01.395Z,102166.72
2022-11-25T22:10:04.149Z,102177.50
2022-11-25T22:15:12.930Z,102171.03
2022-11-25T22:20:26.736Z,102184.94
2022-11-25T22:25:32.112Z,102186.56
2022-11-25T22:30:34.853Z,102093.41
2022-11-25T22:35:38.802Z,102208.94
2022-11-25T22:40:43.091Z,102205.53
2022-11-25T22:45:46.774Z,102189.47
2022-11-25T22:50:50.745Z,102222.44
2022-11-25T22:55:56.751Z,102223.69
2022-11-25T23:00:59.354Z,102234.91
2022-11-25T23:06:05.548Z,102251.22
2022-11-25T23:11:16.191Z,102250.47
2022-11-25T23:16:18.806Z,102241.41
2022-11-25T23:21:25.409Z,102246.47
2022-11-25T23:26:33.626Z,102209.75
2022-11-25T23:31:39.702Z,102247.03
2022-11-25T23:36:47.238Z,102257.44
2022-11-25T23:41:50.349Z,102265.34
2022-11-25T23:46:57.498Z,102276.81
2022-11-25T23:52:07.757Z,102278.19
2022-11-25T23:57:15.263Z,102286.72
